KSMO/SMO METAR and TAF weather

Enter ICAO airport designator
Station Type Date Time Source
KSMO METAR 2022/10/01 07:51 UTC NOAA

KSMO 010751Z AUTO VRB03KT 10SM OVC022 20/15 A2985 RMK AO2 SLP105 T02000150 402390183


Station Type Date Time Source
KSMO Decoded METAR 2022/10/01 07:51 UTC NOAA

SANTA MONICA MUNICIPAL AIRPORT , CA, United States (KSMO) 34-01N 118-27W 57M
Oct 01, 2022 - 03:51 AM EDT / 2022.10.01 0751 UTC
Wind: Variable at 3 MPH (3 KT):0
Visibility: 10 mile(s):0
Sky conditions: overcast
Temperature: 68.0 F (20.0 C)
Dew Point: 59.0 F (15.0 C)
Relative Humidity: 72%
Pressure (altimeter): 29.85 in. Hg (1010 hPa)
ob: KSMO 010751Z AUTO VRB03KT 10SM OVC022 20/15 A2985 RMK AO2 SLP105 T02000150 402390183
cycle: 8

Station Type Date Time Source
KSMO TAF 2022/10/01 06:21 UTC NOAA

KSMO 010520Z 0106/0206 VRB03KT P6SM OVC015
FM011700 VRB03KT P6SM BKN022
FM011900 23010KT P6SM SCT025
FM020300 VRB03KT P6SM OVC018

Example: see airport list